KBJJ

Details ICAO KBJJ
Name WAYNE CO
Region United States
Timezone America/New_York (UTC-4.0)
Plans Departing 4
Arriving 2
Stats Elevation 1,136 ft / 346 m (AMSL)
Location 40.874843° -81.888262°
Runways 1
Magnetic Variation 8.100° W
Sunrise 2018-05-27 10:02:10 UTC / 2018-05-27 06:02:10 Local
Sunset 2018-05-28 00:50:11 UTC / 2018-05-27 20:50:11 Local
Advertisement - Login to hide

Runways

ID Width Length Bearing (true) Bearing (mag) Surface Threshold Offset Overrun Length
10 98 ft / 30 m 5,179 ft / 1,579 m 90.00° 98.10° Asphalt 0 ft / 0 m 0 ft / 0 m
28 98 ft / 30 m 5,179 ft / 1,579 m 270.01° 278.11° Asphalt 217 ft / 66 m 0 ft / 0 m

Map

Weather


0- 5 10 15 20 25 30 35+ Temperature / ° C

Clouds and Precipitation
Forecast for 2018-05-27 12:00 UTC. Updated 3 hours ago

Ground ~20,000 ft ~40,000 ft Winds

METAR

KBJJ 271356Z AUTO 00000KT 8SM BKN011 22/19 A2996 RMK AO2 SLP142 T02220194 $

TAF

Not found

Frequencies

Recorded 118.07 MHz ASOS
Clearance 121.75 MHz CLNC DEL
Unicom 122.80 MHz CTAF/UNICOM
Approach 118.60 MHz AKRON CANTON APP/DEP
Warning: Do not use this data for real-world aviation or navigation. No guarantee of current accuracy is given.